SYMP weather

Mountain Point Airport
Mountain Point, Upper Takutu-Upper Essequibo, Guyana

Public forecast

Using degrees Celsius for public forecast. Weather courtesy of forecast.io.

METAR (pilot weather report)

Report is more than 6 hours old.

Closest report is Lethem Airport, 24.3 nm (44.9 km) NNW. Retrieved 2019/03/22 21:00 UTC (11 hours ago):

SYLT 222100Z 08012KT 9999 FEW028 34/22 Q//// NOSIG

TAF (pilot weather forecast)

Forecast is more than 12 hours old.

Closest forecast is Lethem Airport, 24.3 nm (44.9 km) NNW. Retrieved 2019/03/18 12:12 UTC (5 days ago):

TAF SYLT 181112Z 1812/1823 06014KT 9999 BKN023 SCT040